Time;durP1;ratioP1;P1;durP2;ratioP2;P2;SDS_P1;SDS_P2;PMS_P1;PMS_P2;Temp;Humidity;BMP_temperature;BMP_pressure;BME280_temperature;BME280_humidity;BME280_pressure;Samples;Min_cycle;Max_cycle;Signal;HPM_P1;HPM_P2
2021/08/19 00:01:17;;;;;;;;;;;17.70;99.90;;;;;;5012499;28;19910;-88
2021/08/19 00:03:42;;;;;;;;;;;17.70;99.90;;;;;;5011140;28;19909;-88
2021/08/19 00:06:08;;;;;;;;;;;17.70;99.90;;;;;;5011186;28;19960;-88
2021/08/19 00:08:34;;;;;;;;;;;17.70;99.90;;;;;;5014339;28;19917;-88
2021/08/19 00:10:59;;;;;;;;;;;17.70;99.90;;;;;;5016125;28;19920;-89
2021/08/19 00:13:25;;;;;;;;;;;17.70;99.90;;;;;;5016059;28;20359;-89
2021/08/19 00:15:50;;;;;;;;;;;17.70;99.90;;;;;;5014763;28;19939;-88
2021/08/19 00:18:16;;;;;;;;;;;17.70;99.90;;;;;;5014501;28;20390;-89
2021/08/19 00:20:41;;;;;;;;;;;17.70;99.90;;;;;;5015938;28;19917;-88
2021/08/19 00:23:07;;;;;;;;;;;17.70;99.90;;;;;;5014644;28;19909;-88
2021/08/19 00:25:32;;;;;;;;;;;17.70;99.90;;;;;;5014593;28;19917;-88
2021/08/19 00:27:58;;;;;;;;;;;17.70;99.90;;;;;;5014663;28;19916;-88
2021/08/19 00:30:24;;;;;;;;;;;17.60;99.90;;;;;;5014499;28;19956;-88
2021/08/19 00:32:49;;;;;;;;;;;17.60;99.90;;;;;;5014373;28;19968;-88
2021/08/19 00:35:15;;;;;;;;;;;17.60;99.90;;;;;;5014411;28;19967;-88
2021/08/19 00:37:40;;;;;;;;;;;17.60;99.90;;;;;;5014258;28;19909;-88
2021/08/19 00:40:06;;;;;;;;;;;17.60;99.90;;;;;;5014300;28;19909;-89
2021/08/19 00:42:33;;;;;;;;;;;17.60;99.90;;;;;;5014180;28;19909;-89
2021/08/19 00:44:58;;;;;;;;;;;17.60;99.90;;;;;;5014299;28;20324;-89
2021/08/19 00:47:26;;;;;;;;;;;17.60;99.90;;;;;;5015429;28;19910;-88
2021/08/19 00:49:52;;;;;;;;;;;17.60;99.90;;;;;;5015377;28;19920;-88
2021/08/19 00:52:18;;;;;;;;;;;17.60;99.90;;;;;;5014184;28;19909;-88
2021/08/19 00:54:43;;;;;;;;;;;17.60;99.90;;;;;;5014426;28;20305;-89
2021/08/19 00:57:09;;;;;;;;;;;17.60;99.90;;;;;;5014939;28;19909;-89
2021/08/19 00:59:36;;;;;;;;;;;17.70;99.90;;;;;;5016304;28;19961;-88
2021/08/19 01:02:02;;;;;;;;;;;17.70;99.90;;;;;;5014505;28;19910;-88
2021/08/19 01:04:31;;;;;;;;;;;17.60;99.90;;;;;;5015257;28;20381;-88
2021/08/19 01:06:58;;;;;;;;;;;17.60;99.90;;;;;;5017702;28;19909;-89
2021/08/19 01:09:23;;;;;;;;;;;17.60;99.90;;;;;;5018046;28;19910;-89
2021/08/19 01:11:49;;;;;;;;;;;17.60;99.90;;;;;;5015057;28;19959;-89
2021/08/19 01:14:15;;;;;;;;;;;17.70;99.90;;;;;;5013961;28;20000;-89
2021/08/19 01:16:49;;;;;;;;;;;17.70;99.90;;;;;;5013888;28;19921;-88
2021/08/19 01:19:16;;;;;;;;;;;17.70;99.90;;;;;;5013488;28;19909;-89
2021/08/19 01:21:42;;;;;;;;;;;17.70;99.90;;;;;;5014863;28;19959;-89
2021/08/19 01:24:07;;;;;;;;;;;17.80;99.90;;;;;;5013459;28;20000;-89
2021/08/19 01:26:33;;;;;;;;;;;17.70;99.90;;;;;;5013298;28;19909;-89
2021/08/19 01:28:59;;;;;;;;;;;17.80;99.90;;;;;;5014615;28;19991;-89
2021/08/19 01:31:25;;;;;;;;;;;17.80;99.90;;;;;;5014590;28;20385;-89
2021/08/19 01:33:51;;;;;;;;;;;17.70;99.90;;;;;;5014485;28;19916;-89
2021/08/19 01:36:17;;;;;;;;;;;17.70;99.90;;;;;;5013525;28;19910;-89
2021/08/19 01:38:43;;;;;;;;;;;17.70;99.90;;;;;;5013087;28;20363;-89
2021/08/19 01:41:08;;;;;;;;;;;17.70;99.90;;;;;;5013323;28;19909;-89
2021/08/19 01:43:35;;;;;;;;;;;17.70;99.90;;;;;;5013125;28;19909;-88
2021/08/19 01:46:01;;;;;;;;;;;17.70;99.90;;;;;;5013068;28;19909;-88
2021/08/19 01:48:27;;;;;;;;;;;17.70;99.90;;;;;;5013036;28;19909;-89
2021/08/19 01:50:53;;;;;;;;;;;17.70;99.90;;;;;;5014178;28;19932;-88
2021/08/19 01:53:18;;;;;;;;;;;17.70;99.90;;;;;;5012878;28;19910;-88
2021/08/19 01:55:44;;;;;;;;;;;17.70;99.90;;;;;;5014155;28;20279;-88
2021/08/19 01:58:10;;;;;;;;;;;17.70;99.90;;;;;;5012771;28;19996;-89
2021/08/19 02:00:36;;;;;;;;;;;17.70;99.90;;;;;;5012911;28;20353;-88
2021/08/19 02:03:02;;;;;;;;;;;17.70;99.90;;;;;;5012723;28;19917;-89
2021/08/19 02:05:28;;;;;;;;;;;17.80;99.90;;;;;;5012112;28;19976;-89
2021/08/19 02:07:54;;;;;;;;;;;17.80;99.90;;;;;;5011653;28;19917;-89
2021/08/19 02:10:19;;;;;;;;;;;17.80;99.90;;;;;;5012712;28;19913;-88
2021/08/19 02:12:45;;;;;;;;;;;17.80;99.90;;;;;;5013983;28;19910;-89
2021/08/19 02:15:11;;;;;;;;;;;17.80;99.90;;;;;;5012704;28;19940;-88
2021/08/19 02:17:36;;;;;;;;;;;17.80;99.90;;;;;;5012343;28;19924;-89
2021/08/19 02:20:02;;;;;;;;;;;17.70;99.90;;;;;;5012501;28;19909;-89
2021/08/19 02:22:28;;;;;;;;;;;17.70;99.90;;;;;;5012397;28;19909;-89
2021/08/19 02:24:53;;;;;;;;;;;17.70;99.90;;;;;;5013678;28;19910;-89
2021/08/19 02:27:19;;;;;;;;;;;17.70;99.90;;;;;;5012180;28;19910;-89
2021/08/19 02:29:44;;;;;;;;;;;17.70;99.90;;;;;;5012900;28;19917;-89
2021/08/19 02:32:10;;;;;;;;;;;17.70;99.90;;;;;;5012203;28;19918;-89
2021/08/19 02:34:35;;;;;;;;;;;17.70;99.90;;;;;;5012130;28;19914;-88
2021/08/19 02:37:01;;;;;;;;;;;17.70;99.90;;;;;;5013292;28;19910;-89
2021/08/19 02:39:26;;;;;;;;;;;17.70;99.90;;;;;;5012138;28;19910;-89
2021/08/19 02:41:52;;;;;;;;;;;17.70;99.90;;;;;;5013442;28;19920;-89
2021/08/19 02:44:17;;;;;;;;;;;17.70;99.90;;;;;;5012305;28;20298;-89
2021/08/19 02:46:43;;;;;;;;;;;17.70;99.90;;;;;;5013209;28;19910;-89
2021/08/19 02:49:08;;;;;;;;;;;17.70;99.90;;;;;;5013233;28;19909;-88
2021/08/19 02:51:34;;;;;;;;;;;17.60;99.90;;;;;;5013074;28;19910;-89
2021/08/19 02:53:59;;;;;;;;;;;17.70;99.90;;;;;;5011929;28;20382;-88
2021/08/19 02:56:26;;;;;;;;;;;17.70;99.90;;;;;;5011812;28;19910;-90
2021/08/19 02:58:52;;;;;;;;;;;17.70;99.90;;;;;;5011837;28;19913;-89
2021/08/19 03:01:17;;;;;;;;;;;17.60;99.90;;;;;;5013465;28;19909;-89
2021/08/19 03:03:43;;;;;;;;;;;17.60;99.90;;;;;;5013027;28;19917;-89
2021/08/19 03:06:08;;;;;;;;;;;17.60;99.90;;;;;;5011707;28;19949;-89
2021/08/19 03:08:34;;;;;;;;;;;17.50;99.90;;;;;;5011827;28;19910;-89
2021/08/19 03:11:00;;;;;;;;;;;17.60;99.90;;;;;;5011609;28;19920;-88
2021/08/19 03:13:25;;;;;;;;;;;17.50;99.90;;;;;;5011696;28;20421;-88
2021/08/19 03:15:51;;;;;;;;;;;17.60;99.90;;;;;;5011746;28;19943;-88
2021/08/19 03:18:16;;;;;;;;;;;17.60;99.90;;;;;;5011700;28;20376;-89
2021/08/19 03:20:42;;;;;;;;;;;17.50;99.90;;;;;;5011620;28;19916;-89
2021/08/19 03:23:07;;;;;;;;;;;17.50;99.90;;;;;;5011691;28;19910;-88
2021/08/19 03:25:33;;;;;;;;;;;17.50;99.90;;;;;;5011643;28;19913;-89
2021/08/19 03:28:02;;;;;;;;;;;17.50;99.90;;;;;;5012741;28;19910;-88
2021/08/19 03:30:28;;;;;;;;;;;17.60;99.90;;;;;;5011628;28;19956;-89
2021/08/19 03:32:54;;;;;;;;;;;17.50;99.90;;;;;;5012842;28;19944;-89
2021/08/19 03:35:20;;;;;;;;;;;17.50;99.90;;;;;;5012512;28;20406;-89
2021/08/19 03:37:45;;;;;;;;;;;17.50;99.90;;;;;;5011448;28;19932;-89
2021/08/19 03:40:11;;;;;;;;;;;17.50;99.90;;;;;;5011495;28;19966;-89
2021/08/19 03:42:38;;;;;;;;;;;17.50;99.90;;;;;;5014817;28;20366;-89
2021/08/19 03:45:09;;;;;;;;;;;17.50;99.90;;;;;;5015420;28;19916;-89
2021/08/19 03:47:34;;;;;;;;;;;17.50;99.90;;;;;;5015323;28;19909;-89
2021/08/19 03:50:00;;;;;;;;;;;17.50;99.90;;;;;;5015262;28;19913;-89
2021/08/19 03:52:25;;;;;;;;;;;17.50;99.90;;;;;;5015122;28;19913;-88
2021/08/19 03:54:51;;;;;;;;;;;17.50;99.90;;;;;;5016357;28;20366;-89
2021/08/19 03:57:16;;;;;;;;;;;17.50;99.90;;;;;;5015066;28;19936;-88
2021/08/19 03:59:42;;;;;;;;;;;17.50;99.90;;;;;;5015119;28;19956;-88
2021/08/19 04:02:08;;;;;;;;;;;17.50;99.90;;;;;;5015222;28;20290;-89
2021/08/19 04:04:33;;;;;;;;;;;17.50;99.90;;;;;;5014919;28;19910;-89
2021/08/19 04:06:59;;;;;;;;;;;17.50;99.90;;;;;;5016163;28;19952;-89
2021/08/19 04:09:24;;;;;;;;;;;17.50;99.90;;;;;;5014919;28;20004;-89
2021/08/19 04:11:50;;;;;;;;;;;17.50;99.90;;;;;;5014918;28;20179;-88
2021/08/19 04:14:15;;;;;;;;;;;17.50;99.90;;;;;;5014853;28;19913;-89
2021/08/19 04:16:41;;;;;;;;;;;17.50;99.90;;;;;;5014553;28;19918;-89
2021/08/19 04:19:06;;;;;;;;;;;17.50;99.90;;;;;;5014681;28;19963;-89
2021/08/19 04:21:32;;;;;;;;;;;17.50;99.90;;;;;;5014702;28;19910;-88
2021/08/19 04:23:58;;;;;;;;;;;17.50;99.90;;;;;;5014710;28;20286;-89
2021/08/19 04:26:23;;;;;;;;;;;17.50;99.90;;;;;;5014518;28;19909;-89
2021/08/19 04:28:49;;;;;;;;;;;17.50;99.90;;;;;;5014576;28;19999;-89
2021/08/19 04:31:14;;;;;;;;;;;17.50;99.90;;;;;;5015764;28;19916;-89
2021/08/19 04:33:40;;;;;;;;;;;17.50;99.90;;;;;;5014517;28;20285;-88
2021/08/19 04:36:05;;;;;;;;;;;17.50;99.90;;;;;;5015439;28;19967;-89
2021/08/19 04:38:33;;;;;;;;;;;17.50;99.90;;;;;;5014290;28;19909;-90
2021/08/19 04:40:59;;;;;;;;;;;17.50;99.90;;;;;;5013779;28;19909;-90
2021/08/19 04:43:24;;;;;;;;;;;17.50;99.90;;;;;;5014162;28;19910;-89
2021/08/19 04:45:50;;;;;;;;;;;17.50;99.90;;;;;;5014207;28;19913;-89
2021/08/19 04:48:15;;;;;;;;;;;17.40;99.90;;;;;;5014084;28;19909;-90
2021/08/19 04:50:41;;;;;;;;;;;17.40;99.90;;;;;;5013459;28;20362;-89
2021/08/19 04:53:06;;;;;;;;;;;17.50;99.90;;;;;;5013353;28;19910;-89
2021/08/19 04:55:32;;;;;;;;;;;17.40;99.90;;;;;;5013934;28;19914;-89
2021/08/19 04:57:57;;;;;;;;;;;17.40;99.90;;;;;;5014982;28;19910;-89
2021/08/19 05:00:23;;;;;;;;;;;17.40;99.90;;;;;;5013376;28;19910;-89
2021/08/19 05:02:48;;;;;;;;;;;17.40;99.90;;;;;;5013632;28;19916;-89
2021/08/19 05:05:14;;;;;;;;;;;17.50;99.90;;;;;;5013701;28;20004;-89
2021/08/19 05:07:39;;;;;;;;;;;17.50;99.90;;;;;;5013796;28;20285;-89
2021/08/19 05:10:05;;;;;;;;;;;17.50;99.90;;;;;;5014712;28;19909;-89
2021/08/19 05:12:31;;;;;;;;;;;17.50;99.90;;;;;;5014830;28;20009;-89
2021/08/19 05:14:56;;;;;;;;;;;17.50;99.90;;;;;;5013361;28;19920;-89
2021/08/19 05:17:22;;;;;;;;;;;17.50;99.90;;;;;;5014678;28;20004;-89
2021/08/19 05:19:47;;;;;;;;;;;17.50;99.90;;;;;;5013415;28;19960;-89
2021/08/19 05:22:13;;;;;;;;;;;17.50;99.90;;;;;;5013608;28;19964;-89
2021/08/19 05:24:39;;;;;;;;;;;17.50;99.90;;;;;;5014580;28;19910;-89
2021/08/19 05:27:05;;;;;;;;;;;17.50;99.90;;;;;;5013103;28;19910;-90
2021/08/19 05:29:30;;;;;;;;;;;17.50;99.90;;;;;;5012961;28;20433;-90
2021/08/19 05:31:56;;;;;;;;;;;17.50;99.90;;;;;;5013121;28;19968;-89
2021/08/19 05:34:21;;;;;;;;;;;17.50;99.90;;;;;;5013249;28;19913;-89
2021/08/19 05:36:47;;;;;;;;;;;17.50;99.90;;;;;;5014399;28;20379;-90
2021/08/19 05:39:12;;;;;;;;;;;17.50;99.90;;;;;;5013969;28;19936;-89
2021/08/19 05:41:38;;;;;;;;;;;17.40;99.90;;;;;;5012999;28;19909;-89
2021/08/19 05:44:03;;;;;;;;;;;17.50;99.90;;;;;;5014065;28;19917;-89
2021/08/19 05:46:29;;;;;;;;;;;17.50;99.90;;;;;;5012868;28;20383;-89
2021/08/19 05:48:54;;;;;;;;;;;17.50;99.90;;;;;;5012734;28;20321;-90
2021/08/19 05:51:20;;;;;;;;;;;17.50;99.90;;;;;;5014123;28;19914;-90
2021/08/19 05:53:45;;;;;;;;;;;17.50;99.90;;;;;;5012956;28;19916;-89
2021/08/19 05:56:11;;;;;;;;;;;17.50;99.90;;;;;;5014203;28;19995;-89
2021/08/19 05:58:36;;;;;;;;;;;17.50;99.90;;;;;;5012989;28;19916;-89
2021/08/19 06:01:02;;;;;;;;;;;17.40;99.90;;;;;;5012273;28;19959;-89
2021/08/19 06:03:28;;;;;;;;;;;17.50;99.90;;;;;;5014323;28;19964;-90
2021/08/19 06:05:53;;;;;;;;;;;17.50;99.90;;;;;;5013330;28;20004;-90
2021/08/19 06:08:19;;;;;;;;;;;17.50;99.90;;;;;;5014297;28;19917;-89
2021/08/19 06:10:44;;;;;;;;;;;17.50;99.90;;;;;;5013759;28;20289;-89
2021/08/19 06:13:10;;;;;;;;;;;17.50;99.90;;;;;;5012854;28;20000;-89
2021/08/19 06:15:35;;;;;;;;;;;17.60;99.90;;;;;;5012923;28;20396;-89
2021/08/19 06:18:01;;;;;;;;;;;17.60;99.90;;;;;;5013035;28;20282;-89
2021/08/19 06:20:27;;;;;;;;;;;17.60;99.90;;;;;;5012905;28;19917;-90
2021/08/19 06:22:54;;;;;;;;;;;17.60;99.90;;;;;;5012558;28;19920;-89
2021/08/19 06:25:19;;;;;;;;;;;17.60;99.90;;;;;;5012558;28;20452;-90
2021/08/19 06:27:45;;;;;;;;;;;17.60;99.90;;;;;;5012288;28;19909;-89
2021/08/19 06:30:11;;;;;;;;;;;17.60;99.90;;;;;;5011893;28;20348;-89
2021/08/19 06:32:37;;;;;;;;;;;17.60;99.90;;;;;;5011676;28;20059;-89
2021/08/19 06:35:02;;;;;;;;;;;17.60;99.90;;;;;;5012141;28;20371;-90
2021/08/19 06:37:28;;;;;;;;;;;17.60;99.90;;;;;;5012427;28;20290;-89
2021/08/19 06:39:53;;;;;;;;;;;17.60;99.90;;;;;;5013205;28;19910;-89
2021/08/19 06:42:19;;;;;;;;;;;17.60;99.90;;;;;;5012256;28;19913;-89
2021/08/19 06:44:44;;;;;;;;;;;17.70;99.90;;;;;;5012039;28;20259;-89
2021/08/19 06:47:10;;;;;;;;;;;17.70;99.90;;;;;;5012179;28;19963;-90
2021/08/19 06:49:36;;;;;;;;;;;17.70;99.90;;;;;;5012557;28;19919;-89
2021/08/19 06:52:02;;;;;;;;;;;17.70;99.90;;;;;;5011831;28;20367;-89
2021/08/19 06:54:28;;;;;;;;;;;17.70;99.90;;;;;;5012053;28;19913;-89
2021/08/19 06:56:53;;;;;;;;;;;17.70;99.90;;;;;;5012208;28;20358;-90
2021/08/19 06:59:19;;;;;;;;;;;17.70;99.90;;;;;;5013046;28;19910;-89
2021/08/19 07:01:44;;;;;;;;;;;17.70;99.90;;;;;;5011752;28;19910;-89
2021/08/19 07:04:10;;;;;;;;;;;17.70;99.90;;;;;;5012091;28;19921;-89
2021/08/19 07:06:35;;;;;;;;;;;17.70;99.90;;;;;;5012040;28;19963;-90
2021/08/19 07:09:01;;;;;;;;;;;17.70;99.90;;;;;;5012820;28;19916;-89
2021/08/19 07:11:26;;;;;;;;;;;17.70;99.90;;;;;;5012882;28;20003;-89
2021/08/19 07:13:52;;;;;;;;;;;17.80;99.90;;;;;;5012090;28;19918;-90
2021/08/19 07:16:18;;;;;;;;;;;17.80;99.90;;;;;;5012143;28;19913;-89
2021/08/19 07:18:43;;;;;;;;;;;17.80;99.90;;;;;;5013108;28;19910;-89
2021/08/19 07:21:09;;;;;;;;;;;17.90;99.90;;;;;;5012748;28;19916;-89
2021/08/19 07:23:34;;;;;;;;;;;17.90;99.90;;;;;;5011769;28;19921;-90
2021/08/19 07:26:00;;;;;;;;;;;17.90;99.90;;;;;;5012847;28;19921;-89
2021/08/19 07:28:25;;;;;;;;;;;17.90;99.90;;;;;;5012797;28;19920;-90
2021/08/19 07:30:51;;;;;;;;;;;17.90;99.90;;;;;;5013268;28;19910;-90
2021/08/19 07:33:19;;;;;;;;;;;17.90;99.90;;;;;;5012312;28;20015;-90
2021/08/19 07:35:47;;;;;;;;;;;17.90;99.90;;;;;;5014093;28;19914;-90
2021/08/19 07:38:15;;;;;;;;;;;17.90;99.90;;;;;;5013121;28;19909;-91
2021/08/19 07:40:41;;;;;;;;;;;17.90;99.90;;;;;;5014713;28;19913;-90
2021/08/19 07:43:06;;;;;;;;;;;17.90;99.90;;;;;;5014559;28;20290;-90
2021/08/19 07:45:34;;;;;;;;;;;17.90;99.90;;;;;;5014213;28;19913;-90
2021/08/19 07:48:05;;;;;;;;;;;17.90;99.90;;;;;;5017172;28;19928;-90
2021/08/19 07:50:31;;;;;;;;;;;17.90;99.90;;;;;;5013201;28;20289;-91
2021/08/19 07:52:56;;;;;;;;;;;17.80;99.90;;;;;;5011420;28;20000;-91
2021/08/19 07:55:22;;;;;;;;;;;17.80;99.90;;;;;;5011315;28;19914;-90
2021/08/19 07:57:49;;;;;;;;;;;17.80;99.90;;;;;;5012432;28;20325;-91
2021/08/19 08:00:18;;;;;;;;;;;17.80;99.90;;;;;;5011278;28;19964;-91
2021/08/19 08:02:43;;;;;;;;;;;17.80;99.90;;;;;;5012201;28;20020;-91
2021/08/19 08:05:09;;;;;;;;;;;17.80;99.90;;;;;;5012755;28;20204;-90
2021/08/19 08:07:35;;;;;;;;;;;17.80;99.90;;;;;;5014994;28;19910;-90
2021/08/19 08:10:00;;;;;;;;;;;17.70;99.90;;;;;;5013808;28;19909;-90
2021/08/19 08:12:26;;;;;;;;;;;17.80;99.90;;;;;;5012024;28;19917;-91
2021/08/19 08:14:52;;;;;;;;;;;17.80;99.90;;;;;;5013024;28;20016;-90
2021/08/19 08:17:19;;;;;;;;;;;17.70;99.90;;;;;;5013313;28;19940;-90
2021/08/19 08:19:45;;;;;;;;;;;17.70;99.90;;;;;;5014650;28;19913;-90
2021/08/19 08:22:11;;;;;;;;;;;17.70;99.90;;;;;;5014895;28;20000;-90
2021/08/19 08:24:36;;;;;;;;;;;17.70;99.90;;;;;;5011061;28;19909;-90
2021/08/19 08:27:02;;;;;;;;;;;17.70;99.90;;;;;;5010907;28;19917;-90
2021/08/19 08:29:27;;;;;;;;;;;17.70;99.90;;;;;;5013597;28;20382;-90
2021/08/19 08:31:53;;;;;;;;;;;17.70;99.90;;;;;;5014433;28;20405;-90
2021/08/19 08:34:18;;;;;;;;;;;17.70;99.90;;;;;;5014291;28;20272;-91
2021/08/19 08:36:44;;;;;;;;;;;17.70;99.90;;;;;;5014149;28;19909;-90
2021/08/19 08:39:10;;;;;;;;;;;17.70;99.90;;;;;;5016177;28;19920;-90
2021/08/19 08:41:38;;;;;;;;;;;17.80;99.90;;;;;;5016492;28;19909;-91
2021/08/19 08:44:04;;;;;;;;;;;17.80;99.90;;;;;;5014982;28;19909;-91
2021/08/19 08:46:30;;;;;;;;;;;17.70;99.90;;;;;;5015409;28;19916;-90
2021/08/19 08:48:58;;;;;;;;;;;17.80;99.90;;;;;;5015933;28;19910;-91
2021/08/19 08:51:25;;;;;;;;;;;17.90;99.90;;;;;;5015662;28;19917;-90
2021/08/19 08:53:50;;;;;;;;;;;17.90;99.90;;;;;;5014511;28;20289;-91
2021/08/19 08:56:16;;;;;;;;;;;17.90;99.90;;;;;;5015092;28;20012;-91
2021/08/19 08:58:41;;;;;;;;;;;17.90;99.90;;;;;;5014175;28;19909;-91
2021/08/19 09:01:07;;;;;;;;;;;17.90;99.90;;;;;;5013306;28;19980;-91
2021/08/19 09:03:32;;;;;;;;;;;17.90;99.90;;;;;;5013865;28;20189;-90
2021/08/19 09:05:58;;;;;;;;;;;17.90;99.90;;;;;;5013826;28;19914;-90
2021/08/19 09:08:27;;;;;;;;;;;17.90;99.90;;;;;;5013687;28;20011;-88
2021/08/19 09:10:57;;;;;;;;;;;17.80;99.90;;;;;;5013393;28;20412;-88
2021/08/19 09:13:25;;;;;;;;;;;17.80;99.90;;;;;;5014900;28;19952;-88
2021/08/19 09:15:52;;;;;;;;;;;17.90;99.90;;;;;;5013587;28;19967;-89
2021/08/19 09:18:28;;;;;;;;;;;17.90;99.90;;;;;;5014719;28;20011;-88
2021/08/19 09:20:54;;;;;;;;;;;17.90;99.90;;;;;;5013973;28;19913;-88
2021/08/19 09:23:19;;;;;;;;;;;17.90;99.90;;;;;;5015469;28;20008;-87
2021/08/19 09:25:45;;;;;;;;;;;17.90;99.90;;;;;;5015820;28;19909;-88
2021/08/19 09:28:12;;;;;;;;;;;17.90;99.90;;;;;;5013757;28;20277;-88
2021/08/19 09:30:39;;;;;;;;;;;17.90;99.90;;;;;;5013052;28;19914;-88
2021/08/19 09:33:06;;;;;;;;;;;17.90;99.90;;;;;;5013246;28;19956;-88
2021/08/19 09:35:32;;;;;;;;;;;17.90;99.90;;;;;;5013200;28;20359;-90
2021/08/19 09:38:04;;;;;;;;;;;17.90;99.90;;;;;;5029472;28;19952;-91
2021/08/19 09:40:30;;;;;;;;;;;18.00;99.90;;;;;;5012763;28;19914;-91
2021/08/19 09:42:56;;;;;;;;;;;18.00;99.90;;;;;;5014196;28;19910;-90
2021/08/19 09:45:22;;;;;;;;;;;18.00;99.90;;;;;;5014264;28;19940;-91
2021/08/19 09:47:49;;;;;;;;;;;18.10;99.90;;;;;;5014261;28;19909;-91
2021/08/19 09:50:16;;;;;;;;;;;18.20;99.90;;;;;;5012453;28;20312;-90
2021/08/19 09:52:43;;;;;;;;;;;18.20;99.90;;;;;;5014154;28;20263;-90
2021/08/19 09:55:28;;;;;;;;;;;18.30;99.90;;;;;;5012721;28;19945;-91
2021/08/19 09:57:55;;;;;;;;;;;18.20;99.90;;;;;;5012862;28;19959;-90
2021/08/19 10:00:27;;;;;;;;;;;18.20;99.90;;;;;;5012481;28;19920;-90
2021/08/19 10:02:54;;;;;;;;;;;18.30;99.90;;;;;;5013995;28;19932;-91
2021/08/19 10:05:19;;;;;;;;;;;18.30;99.90;;;;;;5012896;28;19963;-90
2021/08/19 10:07:45;;;;;;;;;;;18.40;99.90;;;;;;5012731;28;19913;-91
2021/08/19 10:10:10;;;;;;;;;;;18.50;99.90;;;;;;5013552;28;19952;-88
2021/08/19 10:12:39;;;;;;;;;;;18.50;99.90;;;;;;5013934;28;19910;-88
2021/08/19 10:15:05;;;;;;;;;;;18.50;99.90;;;;;;5012654;28;19914;-89
2021/08/19 10:17:31;;;;;;;;;;;18.60;99.90;;;;;;5012201;28;20384;-89
2021/08/19 10:19:56;;;;;;;;;;;18.60;99.90;;;;;;5012168;28;20359;-88
2021/08/19 10:22:22;;;;;;;;;;;18.70;99.90;;;;;;5012327;28;19916;-88
2021/08/19 10:24:55;;;;;;;;;;;18.60;99.90;;;;;;5012426;28;19931;-88
2021/08/19 10:27:25;;;;;;;;;;;18.70;99.90;;;;;;5012372;28;19914;-88
2021/08/19 10:30:05;;;;;;;;;;;18.70;99.90;;;;;;5012182;28;19916;-90
2021/08/19 10:32:34;;;;;;;;;;;18.70;99.90;;;;;;5012366;28;19914;-90
2021/08/19 10:35:06;;;;;;;;;;;18.70;99.90;;;;;;5012121;28;20409;-91
2021/08/19 10:37:44;;;;;;;;;;;18.60;99.90;;;;;;5013210;28;19913;-90
2021/08/19 10:40:19;;;;;;;;;;;18.60;99.90;;;;;;5011603;28;19909;-90
2021/08/19 10:42:45;;;;;;;;;;;18.70;99.90;;;;;;5011968;28;20347;-91
2021/08/19 10:45:26;;;;;;;;;;;18.70;99.90;;;;;;5012078;28;19920;-91
2021/08/19 10:47:51;;;;;;;;;;;18.80;99.90;;;;;;5012220;28;19913;-90
2021/08/19 10:50:36;;;;;;;;;;;18.80;99.90;;;;;;5011281;28;20310;-91
2021/08/19 10:53:11;;;;;;;;;;;18.90;99.90;;;;;;5012293;28;20001;-90
2021/08/19 10:55:44;;;;;;;;;;;18.90;99.90;;;;;;5011922;28;19913;-88
2021/08/19 10:58:21;;;;;;;;;;;18.90;99.90;;;;;;5011851;28;19910;-88
2021/08/19 11:00:47;;;;;;;;;;;19.00;99.90;;;;;;5011646;28;19909;-88
2021/08/19 11:03:31;;;;;;;;;;;19.10;99.90;;;;;;5011929;28;20329;-88
2021/08/19 11:05:57;;;;;;;;;;;19.10;99.90;;;;;;5011791;28;20012;-88
2021/08/19 11:08:40;;;;;;;;;;;19.20;99.90;;;;;;5011686;28;20350;-88
2021/08/19 11:11:06;;;;;;;;;;;19.20;99.90;;;;;;5011496;28;19913;-89
2021/08/19 11:16:54;;;;;;;;;;;19.30;99.90;;;;;;4989425;28;20279;-90
2021/08/19 11:19:20;;;;;;;;;;;19.30;99.90;;;;;;5011762;28;19936;-87
2021/08/19 11:21:57;;;;;;;;;;;19.30;99.90;;;;;;5012033;28;20001;-88
2021/08/19 11:24:23;;;;;;;;;;;19.30;99.90;;;;;;5013150;28;19916;-87
2021/08/19 11:26:59;;;;;;;;;;;19.30;99.90;;;;;;5011585;28;20463;-88
2021/08/19 11:29:32;;;;;;;;;;;19.30;99.90;;;;;;5011570;28;19910;-88
2021/08/19 11:32:01;;;;;;;;;;;19.40;99.90;;;;;;5012961;28;19916;-87
2021/08/19 11:34:27;;;;;;;;;;;19.40;99.50;;;;;;5011841;28;20350;-88
2021/08/19 11:36:52;;;;;;;;;;;19.50;99.10;;;;;;5012362;28;19915;-87
2021/08/19 11:39:23;;;;;;;;;;;19.50;99.20;;;;;;5013252;28;19913;-88
2021/08/19 11:41:58;;;;;;;;;;;19.50;99.10;;;;;;5013099;28;20016;-88
2021/08/19 11:44:24;;;;;;;;;;;19.50;99.30;;;;;;5013607;28;19964;-88
2021/08/19 11:46:50;;;;;;;;;;;19.40;99.40;;;;;;5012965;28;19913;-88
2021/08/19 11:49:17;;;;;;;;;;;19.40;99.70;;;;;;5011519;28;19909;-88
2021/08/19 11:51:43;;;;;;;;;;;19.30;99.90;;;;;;5011481;28;19909;-88
2021/08/19 11:54:12;;;;;;;;;;;19.30;99.90;;;;;;5011345;28;20371;-88
2021/08/19 11:56:42;;;;;;;;;;;19.30;99.90;;;;;;5011245;28;19956;-88
2021/08/19 11:59:10;;;;;;;;;;;19.20;99.90;;;;;;5013306;28;19910;-90
2021/08/19 12:01:37;;;;;;;;;;;19.20;99.90;;;;;;5011879;28;19959;-90
2021/08/19 12:04:03;;;;;;;;;;;19.20;99.90;;;;;;5013768;28;19917;-90
2021/08/19 12:06:31;;;;;;;;;;;19.20;99.90;;;;;;5014923;28;19909;-90
2021/08/19 12:09:07;;;;;;;;;;;19.30;99.50;;;;;;5014946;28;19909;-90
2021/08/19 12:11:40;;;;;;;;;;;19.40;99.30;;;;;;5016124;28;19916;-88
2021/08/19 12:14:06;;;;;;;;;;;19.50;98.60;;;;;;5016066;28;19960;-87
2021/08/19 12:16:32;;;;;;;;;;;19.50;98.70;;;;;;5014612;28;20294;-88
2021/08/19 12:19:04;;;;;;;;;;;19.50;98.80;;;;;;5014882;28;19910;-89
2021/08/19 12:21:29;;;;;;;;;;;19.50;98.90;;;;;;5014690;28;20004;-87
2021/08/19 12:24:06;;;;;;;;;;;19.60;98.90;;;;;;5014726;28;20011;-88
2021/08/19 12:26:32;;;;;;;;;;;19.50;99.10;;;;;;5014901;28;20278;-88
2021/08/19 12:28:57;;;;;;;;;;;19.60;99.00;;;;;;5014599;28;19920;-88
2021/08/19 12:31:23;;;;;;;;;;;19.60;98.90;;;;;;5014562;28;19909;-88
2021/08/19 12:34:00;;;;;;;;;;;19.60;98.80;;;;;;5015767;28;19976;-87
2021/08/19 12:36:29;;;;;;;;;;;19.50;99.10;;;;;;5015681;28;20290;-88
2021/08/19 12:39:11;;;;;;;;;;;19.50;99.10;;;;;;5014389;28;19909;-88
2021/08/19 12:41:37;;;;;;;;;;;19.50;99.40;;;;;;5014564;28;20282;-87
2021/08/19 12:44:04;;;;;;;;;;;19.50;99.40;;;;;;5014355;28;19910;-88
2021/08/19 12:46:37;;;;;;;;;;;19.60;98.80;;;;;;5014449;28;19964;-87
2021/08/19 12:49:23;;;;;;;;;;;19.60;98.70;;;;;;5017257;28;19916;-87
2021/08/19 12:52:08;;;;;;;;;;;19.50;98.70;;;;;;5013809;28;19910;-88
2021/08/19 12:54:34;;;;;;;;;;;19.50;99.00;;;;;;5014214;28;19979;-87
2021/08/19 12:56:59;;;;;;;;;;;19.50;99.10;;;;;;5014072;28;19913;-88
2021/08/19 12:59:25;;;;;;;;;;;19.50;99.20;;;;;;5014230;28;19909;-88
2021/08/19 13:01:50;;;;;;;;;;;19.50;99.20;;;;;;5013926;28;19913;-88
2021/08/19 13:04:16;;;;;;;;;;;19.50;99.20;;;;;;5014006;28;19909;-88
2021/08/19 13:06:41;;;;;;;;;;;19.50;99.30;;;;;;5014009;28;19948;-88
2021/08/19 13:09:07;;;;;;;;;;;19.50;99.40;;;;;;5013979;28;19909;-89
2021/08/19 13:11:32;;;;;;;;;;;19.40;99.40;;;;;;5013861;28;19909;-88
2021/08/19 13:13:58;;;;;;;;;;;19.50;99.40;;;;;;5013581;28;19910;-90
2021/08/19 13:16:23;;;;;;;;;;;19.50;99.40;;;;;;5013571;28;19918;-90
2021/08/19 13:18:49;;;;;;;;;;;19.50;99.50;;;;;;5013681;28;20367;-90
2021/08/19 13:21:14;;;;;;;;;;;19.50;99.30;;;;;;5013888;28;20526;-88
2021/08/19 13:23:40;;;;;;;;;;;19.50;99.40;;;;;;5013857;28;19920;-88
2021/08/19 13:26:06;;;;;;;;;;;19.50;98.90;;;;;;5015583;28;19916;-88
2021/08/19 13:28:32;;;;;;;;;;;19.50;98.90;;;;;;5016757;28;20362;-88
2021/08/19 13:30:57;;;;;;;;;;;19.40;99.30;;;;;;5015299;28;19916;-88
2021/08/19 13:33:23;;;;;;;;;;;19.30;99.40;;;;;;5013554;28;19917;-88
2021/08/19 13:35:48;;;;;;;;;;;19.30;98.80;;;;;;5013339;28;19920;-88
2021/08/19 13:38:14;;;;;;;;;;;19.30;98.80;;;;;;5013190;28;20278;-88
2021/08/19 13:40:39;;;;;;;;;;;19.20;98.40;;;;;;5013235;28;19913;-88
2021/08/19 13:43:05;;;;;;;;;;;19.20;98.30;;;;;;5013317;28;19910;-88
2021/08/19 13:45:31;;;;;;;;;;;19.30;98.60;;;;;;5013235;28;19917;-88
2021/08/19 13:47:57;;;;;;;;;;;19.20;98.50;;;;;;5013127;28;19909;-88
2021/08/19 13:50:23;;;;;;;;;;;19.20;98.60;;;;;;5013013;28;19909;-87
2021/08/19 13:52:48;;;;;;;;;;;19.20;98.80;;;;;;5013174;28;19917;-88
2021/08/19 13:55:14;;;;;;;;;;;19.20;98.90;;;;;;5012966;28;20393;-89
2021/08/19 13:57:39;;;;;;;;;;;19.10;98.90;;;;;;5012945;28;19913;-88
2021/08/19 14:00:05;;;;;;;;;;;19.10;98.90;;;;;;5013006;28;19910;-88
2021/08/19 14:02:31;;;;;;;;;;;19.10;99.00;;;;;;5012877;28;19909;-87
2021/08/19 14:04:56;;;;;;;;;;;19.10;99.00;;;;;;5012954;28;19916;-88
2021/08/19 14:07:22;;;;;;;;;;;19.10;98.70;;;;;;5013903;28;19909;-88
2021/08/19 14:09:47;;;;;;;;;;;19.10;98.80;;;;;;5012874;28;19910;-88
2021/08/19 14:12:13;;;;;;;;;;;19.20;98.80;;;;;;5012683;28;20290;-87
2021/08/19 14:14:38;;;;;;;;;;;19.20;98.80;;;;;;5012424;28;20354;-87
2021/08/19 14:17:04;;;;;;;;;;;19.30;98.80;;;;;;5012492;28;19925;-88